Time;durP1;ratioP1;P1;durP2;ratioP2;P2;SDS_P1;SDS_P2;PMS_P1;PMS_P2;Temp;Humidity;BMP_temperature;BMP_pressure;BME280_temperature;BME280_humidity;BME280_pressure;Samples;Min_cycle;Max_cycle;Signal;HPM_P1;HPM_P2
2023/12/11 00:02:04;;;;;;;8.10;2.33;;;6.10;99.90;;;;;;8354842;28;20224;-69
2023/12/11 00:06:05;;;;;;;7.53;2.70;;;6.10;99.90;;;;;;8353632;28;20198;-69
2023/12/11 00:10:09;;;;;;;4.70;2.10;;;6.00;99.90;;;;;;8349888;28;20291;-68
2023/12/11 00:14:09;;;;;;;5.87;2.30;;;6.00;99.90;;;;;;8352690;28;20235;-68
2023/12/11 00:18:12;;;;;;;4.97;2.00;;;5.90;99.90;;;;;;8351265;28;20185;-69
2023/12/11 00:22:14;;;;;;;6.37;2.23;;;5.90;99.90;;;;;;8325200;28;20202;-69
2023/12/11 00:26:20;;;;;;;9.33;2.63;;;5.80;1.00;;;;;;8310960;28;20232;-69
2023/12/11 00:30:24;;;;;;;8.77;2.40;;;5.80;99.90;;;;;;8323944;28;20488;-68
2023/12/11 00:34:25;;;;;;;9.47;2.70;;;5.80;99.90;;;;;;8307354;28;20193;-68
2023/12/11 00:38:26;;;;;;;8.60;2.40;;;5.80;99.90;;;;;;8321361;28;20516;-68
2023/12/11 00:42:27;;;;;;;6.20;2.20;;;5.70;99.90;;;;;;8325241;28;20259;-68
2023/12/11 00:46:33;;;;;;;6.03;2.83;;;5.70;99.90;;;;;;8323493;28;20207;-68
2023/12/11 00:50:35;;;;;;;5.97;1.80;;;5.70;99.90;;;;;;8308498;28;20342;-65
2023/12/11 00:54:35;;;;;;;6.53;1.80;;;5.80;99.90;;;;;;8348048;28;20274;-67
2023/12/11 00:58:36;;;;;;;5.00;1.17;;;5.80;99.90;;;;;;8349151;28;20189;-68
2023/12/11 01:02:42;;;;;;;4.57;1.53;;;5.80;99.90;;;;;;8345497;28;20213;-66
2023/12/11 01:06:42;;;;;;;5.83;1.93;;;5.90;1.00;;;;;;8352714;28;20195;-67
2023/12/11 01:10:46;;;;;;;4.83;1.67;;;6.00;1.00;;;;;;8350794;28;20276;-66
2023/12/11 01:14:49;;;;;;;6.33;2.10;;;5.90;1.00;;;;;;8348510;28;20188;-67
2023/12/11 01:18:50;;;;;;;11.83;2.10;;;5.90;8.80;;;;;;8349693;28;20328;-67
2023/12/11 01:22:51;;;;;;;6.23;2.07;;;5.90;76.10;;;;;;8350829;28;20190;-67
2023/12/11 01:26:52;;;;;;;4.27;1.50;;;5.90;99.90;;;;;;8363560;28;20216;-66
2023/12/11 01:30:53;;;;;;;4.53;1.90;;;5.90;99.90;;;;;;8353915;28;20218;-66
2023/12/11 01:34:54;;;;;;;3.47;1.50;;;5.80;99.90;;;;;;8351118;28;20189;-67
2023/12/11 01:39:00;;;;;;;2.83;1.60;;;5.80;99.90;;;;;;8356723;28;20257;-66
2023/12/11 01:43:30;;;;;;;5.37;1.50;;;5.80;99.90;;;;;;8371703;28;20181;-67
2023/12/11 01:47:31;;;;;;;4.20;1.90;;;5.80;99.90;;;;;;8351524;28;20197;-69
2023/12/11 01:51:32;;;;;;;5.20;2.13;;;5.80;99.90;;;;;;8360482;28;20219;-67
2023/12/11 01:55:34;;;;;;;4.83;1.83;;;5.70;99.90;;;;;;8359333;28;20194;-68
2023/12/11 01:59:38;;;;;;;4.07;2.03;;;5.60;99.90;;;;;;8353711;28;20322;-66
2023/12/11 02:03:47;;;;;;;4.37;1.37;;;5.60;99.90;;;;;;8355835;28;20201;-67
2023/12/11 02:07:53;;;;;;;3.53;1.20;;;5.60;99.90;;;;;;8354504;28;20185;-66
2023/12/11 02:11:59;;;;;;;2.73;1.23;;;5.60;99.90;;;;;;8354149;28;20244;-66
2023/12/11 02:16:02;;;;;;;2.83;1.37;;;5.60;99.90;;;;;;8356824;28;20184;-67
2023/12/11 02:20:08;;;;;;;4.70;1.33;;;5.60;99.90;;;;;;8355331;28;20196;-65
2023/12/11 02:24:16;;;;;;;1.63;0.87;;;5.60;99.90;;;;;;8357999;28;20193;-66
2023/12/11 02:28:17;;;;;;;2.43;1.20;;;5.60;99.90;;;;;;8356467;28;20211;-69
2023/12/11 02:32:23;;;;;;;1.63;1.00;;;5.50;99.90;;;;;;8353866;28;20193;-68
2023/12/11 02:36:27;;;;;;;2.33;1.20;;;5.50;99.90;;;;;;8360492;28;20192;-67
2023/12/11 02:40:40;;;;;;;2.03;1.10;;;5.50;99.90;;;;;;8358672;28;20206;-67
2023/12/11 02:44:48;;;;;;;2.03;1.03;;;5.50;99.90;;;;;;8356912;28;20211;-66
2023/12/11 02:48:55;;;;;;;1.63;0.80;;;5.50;99.90;;;;;;8358680;28;20213;-67
2023/12/11 02:53:01;;;;;;;1.03;0.67;;;5.50;99.90;;;;;;8350337;28;20180;-67
2023/12/11 02:57:07;;;;;;;0.97;0.80;;;5.50;99.90;;;;;;8351129;28;20222;-65
2023/12/11 03:01:08;;;;;;;1.90;0.80;;;5.50;99.90;;;;;;8354207;28;20225;-66
2023/12/11 03:05:12;;;;;;;2.73;0.97;;;5.60;99.90;;;;;;8355197;28;20177;-67
2023/12/11 03:09:12;;;;;;;2.60;0.87;;;5.80;6.10;;;;;;8353913;28;20221;-66
2023/12/11 03:13:16;;;;;;;1.70;1.00;;;5.90;1.00;;;;;;8355725;28;20415;-67
2023/12/11 03:17:16;;;;;;;2.77;0.80;;;6.00;1.00;;;;;;8358020;28;20177;-65
2023/12/11 03:21:20;;;;;;;3.00;0.80;;;6.10;99.90;;;;;;8356507;28;20222;-66
2023/12/11 03:25:23;;;;;;;1.57;1.10;;;6.10;99.90;;;;;;8358364;28;20217;-64
2023/12/11 03:29:24;;;;;;;2.50;0.90;;;6.20;99.90;;;;;;8351380;28;20209;-67
2023/12/11 03:33:25;;;;;;;4.37;1.20;;;6.30;99.90;;;;;;8358689;28;20277;-66
2023/12/11 03:37:29;;;;;;;3.93;1.40;;;6.40;99.90;;;;;;8352436;28;20222;-66
2023/12/11 03:41:29;;;;;;;2.60;1.30;;;6.50;99.90;;;;;;8351400;28;20186;-66
2023/12/11 03:45:33;;;;;;;6.10;1.70;;;6.50;99.90;;;;;;8352473;28;20189;-67
2023/12/11 03:49:38;;;;;;;4.23;2.10;;;6.50;99.90;;;;;;8357803;28;20317;-67
2023/12/11 03:53:42;;;;;;;5.30;1.67;;;6.50;99.90;;;;;;8376943;28;20242;-67
2023/12/11 03:57:43;;;;;;;4.57;1.70;;;6.50;99.90;;;;;;8356368;28;20181;-66
2023/12/11 04:01:45;;;;;;;4.50;1.23;;;6.70;99.90;;;;;;8355445;28;20240;-65
2023/12/11 04:05:46;;;;;;;5.00;1.93;;;6.70;99.90;;;;;;8358480;28;20506;-65
2023/12/11 04:09:47;;;;;;;3.13;1.87;;;6.80;99.90;;;;;;8352086;28;20213;-67
2023/12/11 04:13:48;;;;;;;5.43;1.67;;;6.80;99.90;;;;;;8354635;28;20181;-66
2023/12/11 04:17:49;;;;;;;4.23;1.70;;;6.90;99.90;;;;;;8364705;28;20189;-66
2023/12/11 04:21:52;;;;;;;4.13;1.60;;;6.90;99.90;;;;;;8353899;28;20181;-65
2023/12/11 04:25:54;;;;;;;3.70;1.43;;;7.00;94.80;;;;;;8349527;28;20227;-67
2023/12/11 04:30:00;;;;;;;4.20;1.70;;;7.00;99.90;;;;;;8353417;28;20209;-67
2023/12/11 04:34:09;;;;;;;4.97;1.77;;;7.00;95.20;;;;;;8353620;28;20220;-67
2023/12/11 04:38:13;;;;;;;5.87;1.63;;;7.00;88.60;;;;;;8352301;28;20178;-67
2023/12/11 04:42:19;;;;;;;3.47;1.80;;;7.10;83.80;;;;;;8366408;28;20189;-67
2023/12/11 04:46:20;;;;;;;3.13;1.70;;;7.10;78.10;;;;;;8351485;28;20185;-66
2023/12/11 04:50:26;;;;;;;4.90;1.90;;;7.10;73.10;;;;;;8355722;28;20208;-67
2023/12/11 04:54:29;;;;;;;5.03;2.07;;;7.10;75.90;;;;;;8349988;28;20204;-67
2023/12/11 04:58:30;;;;;;;3.83;1.63;;;7.10;70.00;;;;;;8354120;28;20194;-67
2023/12/11 05:02:31;;;;;;;4.63;1.43;;;7.10;65.30;;;;;;8353113;28;20216;-66
2023/12/11 05:06:32;;;;;;;8.57;2.20;;;7.00;81.90;;;;;;8348514;28;20191;-67
2023/12/11 05:10:35;;;;;;;5.30;2.00;;;6.90;63.70;;;;;;8356134;28;20228;-67
2023/12/11 05:14:36;;;;;;;5.07;2.10;;;6.70;69.30;;;;;;8353770;28;20388;-67
2023/12/11 05:18:38;;;;;;;6.77;2.37;;;6.60;83.00;;;;;;8366156;28;20197;-67
2023/12/11 05:22:42;;;;;;;5.47;1.97;;;6.50;94.40;;;;;;8349031;28;20259;-67
2023/12/11 05:26:46;;;;;;;5.30;1.87;;;6.40;99.90;;;;;;8347652;28;20190;-67
2023/12/11 05:30:50;;;;;;;2.93;1.70;;;6.40;99.90;;;;;;8345766;28;20214;-67
2023/12/11 05:34:51;;;;;;;6.00;1.80;;;6.30;99.90;;;;;;8351823;28;20174;-66
2023/12/11 05:38:57;;;;;;;5.00;1.70;;;6.30;99.90;;;;;;8353566;28;20190;-67
2023/12/11 05:43:03;;;;;;;4.87;1.87;;;6.20;99.90;;;;;;8366668;28;20194;-65
2023/12/11 05:47:05;;;;;;;4.10;2.10;;;6.20;99.90;;;;;;8361699;28;20205;-67
2023/12/11 05:51:13;;;;;;;4.73;1.90;;;6.20;99.90;;;;;;8347656;28;20328;-66
2023/12/11 05:55:14;;;;;;;5.87;2.10;;;6.30;99.90;;;;;;8355937;28;20186;-66
2023/12/11 05:59:15;;;;;;;8.10;2.20;;;6.30;99.90;;;;;;8350169;28;20275;-67
2023/12/11 06:03:18;;;;;;;6.77;1.90;;;6.30;99.90;;;;;;8348829;28;20213;-67
2023/12/11 06:07:22;;;;;;;6.10;1.90;;;6.40;99.90;;;;;;8348185;28;20194;-67
2023/12/11 06:11:28;;;;;;;9.67;2.37;;;6.50;99.90;;;;;;8351164;28;20627;-68
2023/12/11 06:15:38;;;;;;;5.80;2.50;;;6.50;99.90;;;;;;8355421;28;20255;-67
2023/12/11 06:19:42;;;;;;;5.93;1.97;;;6.50;99.90;;;;;;8351722;28;20239;-66
2023/12/11 06:23:43;;;;;;;6.67;2.33;;;6.50;99.90;;;;;;8359358;28;20300;-66
2023/12/11 06:27:47;;;;;;;6.47;2.70;;;6.50;99.90;;;;;;8357428;28;20196;-66
2023/12/11 06:31:50;;;;;;;6.10;2.53;;;6.60;99.90;;;;;;8349231;28;20217;-65
2023/12/11 06:40:28;;;;;;;7.03;2.20;;;6.60;99.90;;;;;;8350364;28;20223;-69
2023/12/11 06:44:40;;;;;;;6.57;1.63;;;6.60;99.90;;;;;;8354737;28;20202;-67
2023/12/11 06:48:47;;;;;;;7.87;2.10;;;6.60;99.90;;;;;;8354966;28;20198;-68
2023/12/11 06:52:52;;;;;;;6.47;2.00;;;6.70;99.90;;;;;;8352287;28;20202;-67
2023/12/11 06:57:02;;;;;;;6.73;2.40;;;6.80;99.90;;;;;;8346493;28;20268;-68
2023/12/11 07:01:03;;;;;;;5.70;1.97;;;6.90;99.90;;;;;;8353973;28;20218;-67
2023/12/11 07:05:13;;;;;;;4.07;1.97;;;6.90;99.90;;;;;;8359839;28;20271;-68
2023/12/11 07:09:14;;;;;;;5.20;1.97;;;6.90;99.90;;;;;;8353385;28;20218;-68
2023/12/11 07:13:21;;;;;;;4.30;1.80;;;6.90;99.90;;;;;;8348148;28;20412;-67
2023/12/11 07:17:28;;;;;;;4.93;1.93;;;7.00;96.80;;;;;;8350996;28;20196;-70
2023/12/11 07:21:29;;;;;;;6.07;1.97;;;7.10;88.30;;;;;;8367039;28;20201;-68
2023/12/11 07:25:33;;;;;;;6.13;1.97;;;7.10;85.70;;;;;;8363399;28;20189;-68
2023/12/11 07:29:46;;;;;;;4.27;1.60;;;7.20;73.50;;;;;;8361355;28;20220;-67
2023/12/11 07:33:47;;;;;;;5.70;2.03;;;7.30;64.50;;;;;;8357564;28;20186;-67
2023/12/11 07:37:48;;;;;;;4.07;2.03;;;7.30;58.50;;;;;;8357676;28;20181;-67
2023/12/11 07:41:52;;;;;;;5.20;1.73;;;7.40;46.20;;;;;;8357621;28;20216;-67
2023/12/11 07:45:53;;;;;;;4.33;1.83;;;7.40;36.90;;;;;;8367220;28;20181;-67
2023/12/11 07:49:54;;;;;;;5.97;2.90;;;7.50;28.20;;;;;;8361825;28;20210;-67
2023/12/11 07:54:19;;;;;;;5.63;2.20;;;7.60;22.00;;;;;;8357083;28;20177;-68
2023/12/11 07:58:25;;;;;;;6.73;2.60;;;7.60;9.00;;;;;;8363123;28;20192;-68
2023/12/11 08:02:26;;;;;;;6.43;2.70;;;7.60;5.90;;;;;;8342134;28;20588;-70
2023/12/11 08:06:34;;;;;;;4.60;2.60;;;7.60;1.00;;;;;;8359450;28;20182;-69
2023/12/11 08:10:37;;;;;;;6.37;2.33;;;7.60;1.00;;;;;;8355906;28;20299;-68
2023/12/11 08:14:46;;;;;;;3.77;2.40;;;7.70;1.00;;;;;;8373920;28;20193;-68
2023/12/11 08:18:49;;;;;;;3.93;2.00;;;7.80;1.00;;;;;;8360120;28;20296;-67
2023/12/11 08:23:00;;;;;;;5.73;2.37;;;8.00;1.00;;;;;;8353295;28;20628;-67
2023/12/11 08:27:07;;;;;;;6.97;1.73;;;8.10;1.00;;;;;;8352796;28;20189;-67
2023/12/11 08:31:13;;;;;;;4.70;1.77;;;8.40;1.00;;;;;;8357516;28;20202;-68
2023/12/11 08:35:15;;;;;;;7.63;2.40;;;8.60;1.00;;;;;;8362273;28;20183;-69
2023/12/11 08:39:23;;;;;;;6.00;2.20;;;8.70;1.00;;;;;;8358707;28;20304;-69
2023/12/11 08:43:24;;;;;;;8.17;1.90;;;8.70;1.00;;;;;;8360060;28;20239;-67
2023/12/11 08:47:29;;;;;;;5.57;1.87;;;8.70;1.00;;;;;;8358809;28;20196;-68
2023/12/11 08:51:30;;;;;;;3.57;2.00;;;8.80;1.00;;;;;;8363829;28;20210;-68
2023/12/11 08:55:42;;;;;;;5.63;2.27;;;9.00;1.00;;;;;;8361535;28;20245;-67
2023/12/11 08:59:48;;;;;;;3.73;1.53;;;9.10;1.00;;;;;;8356835;28;20207;-67
2023/12/11 09:03:52;;;;;;;9.83;2.33;;;9.10;1.00;;;;;;8360546;28;20199;-67
2023/12/11 09:07:55;;;;;;;6.17;1.80;;;9.10;1.00;;;;;;8361470;28;20188;-67
2023/12/11 09:11:57;;;;;;;6.70;1.80;;;9.10;1.00;;;;;;8359473;28;20208;-67
2023/12/11 09:16:08;;;;;;;4.53;2.20;;;9.10;1.00;;;;;;8358001;28;20323;-67
2023/12/11 09:20:09;;;;;;;8.23;1.73;;;8.90;1.00;;;;;;8358462;28;20189;-67
2023/12/11 09:24:12;;;;;;;3.77;1.67;;;8.70;1.00;;;;;;8362257;28;20213;-67
2023/12/11 09:28:19;;;;;;;5.57;1.50;;;8.60;1.00;;;;;;8356378;28;20186;-67
2023/12/11 09:32:24;;;;;;;37.30;18.63;;;8.50;1.00;;;;;;8356331;28;20277;-68
2023/12/11 09:36:27;;;;;;;6.27;2.80;;;8.60;1.00;;;;;;8359507;28;20273;-67
2023/12/11 09:40:34;;;;;;;14.73;4.57;;;8.60;1.00;;;;;;8358761;28;20202;-66
2023/12/11 09:44:35;;;;;;;5.50;1.67;;;8.70;1.00;;;;;;8360589;28;20188;-68
2023/12/11 09:48:39;;;;;;;10.23;4.90;;;9.00;1.00;;;;;;8359616;28;20248;-68
2023/12/11 09:52:46;;;;;;;8.70;3.00;;;9.10;1.00;;;;;;8363804;28;20265;-66
2023/12/11 09:56:53;;;;;;;15.10;7.80;;;9.10;1.00;;;;;;8357549;28;20213;-67
2023/12/11 10:01:00;;;;;;;64.40;19.37;;;9.20;1.00;;;;;;8367400;28;20627;-67
2023/12/11 10:05:11;;;;;;;8.73;3.37;;;9.40;1.00;;;;;;8366914;28;20197;-67
2023/12/11 10:09:34;;;;;;;8.27;3.40;;;9.70;1.00;;;;;;8372242;28;20192;-64
2023/12/11 10:13:36;;;;;;;13.67;5.07;;;9.80;1.00;;;;;;8363899;28;20190;-65
2023/12/11 10:17:39;;;;;;;8.93;3.80;;;9.90;1.00;;;;;;8372125;28;20209;-64
2023/12/11 10:21:42;;;;;;;3.53;1.80;;;9.90;1.00;;;;;;8366580;28;20189;-65
2023/12/11 10:25:45;;;;;;;5.20;1.87;;;9.90;1.00;;;;;;8363719;28;20279;-65
2023/12/11 10:30:05;;;;;;;3.77;2.13;;;10.00;1.00;;;;;;8383735;28;20212;-65
2023/12/11 10:34:09;;;;;;;3.53;1.43;;;10.00;1.00;;;;;;8369360;28;20234;-65
2023/12/11 10:38:26;;;;;;;4.43;1.80;;;10.20;1.00;;;;;;8354213;28;20427;-65
2023/12/11 10:42:27;;;;;;;4.17;1.40;;;10.50;1.00;;;;;;8371096;28;20188;-64
2023/12/11 10:46:31;;;;;;;6.47;1.50;;;10.70;1.00;;;;;;8368913;28;20207;-64
2023/12/11 10:50:36;;;;;;;3.50;1.47;;;10.80;1.00;;;;;;8370216;28;20304;-64
2023/12/11 10:54:38;;;;;;;4.17;1.53;;;10.80;1.00;;;;;;8372173;28;20273;-65
2023/12/11 10:58:39;;;;;;;5.77;1.80;;;10.70;1.00;;;;;;8367632;28;20650;-65
2023/12/11 11:02:53;;;;;;;4.70;1.90;;;10.80;1.00;;;;;;8373032;28;20217;-66
2023/12/11 11:07:06;;;;;;;4.40;1.40;;;10.80;1.00;;;;;;8372524;28;20269;-66
2023/12/11 11:11:23;;;;;;;2.40;1.30;;;10.80;1.00;;;;;;8367663;28;20228;-64
2023/12/11 11:15:25;;;;;;;3.87;1.20;;;10.70;1.00;;;;;;8368345;28;20216;-66
2023/12/11 11:19:30;;;;;;;2.90;1.23;;;10.60;1.00;;;;;;8371331;28;20194;-64
2023/12/11 11:23:41;;;;;;;3.30;1.43;;;10.50;1.00;;;;;;8370567;28;21709;-64
2023/12/11 11:27:43;;;;;;;3.67;1.10;;;10.40;1.00;;;;;;8366901;28;20189;-65
2023/12/11 11:32:02;;;;;;;4.73;1.70;;;10.30;1.00;;;;;;8365113;28;20300;-65
2023/12/11 11:36:03;;;;;;;4.80;1.83;;;10.30;1.00;;;;;;8370614;28;20811;-65
2023/12/11 11:40:07;;;;;;;6.80;1.97;;;10.40;1.00;;;;;;8365721;28;20188;-65
2023/12/11 11:44:14;;;;;;;4.17;1.50;;;10.30;1.00;;;;;;8363816;28;20612;-64
2023/12/11 11:48:19;;;;;;;3.87;1.43;;;10.20;1.00;;;;;;8369998;28;20606;-67
2023/12/11 11:52:30;;;;;;;3.77;1.53;;;10.10;1.00;;;;;;8366114;28;20181;-67
2023/12/11 11:56:34;;;;;;;4.17;1.60;;;10.10;1.00;;;;;;8364040;28;20486;-65
2023/12/11 12:00:35;;;;;;;3.87;1.50;;;10.10;1.00;;;;;;8363735;28;20520;-65
2023/12/11 12:04:45;;;;;;;3.87;1.70;;;10.10;1.00;;;;;;8359705;28;20260;-65
2023/12/11 12:08:49;;;;;;;4.13;1.57;;;10.10;1.00;;;;;;8361584;28;20220;-65
2023/12/11 12:13:00;;;;;;;4.37;2.03;;;10.20;1.00;;;;;;8357408;28;20312;-65
2023/12/11 12:17:13;;;;;;;6.80;1.60;;;10.10;1.00;;;;;;8363137;28;20192;-65
2023/12/11 12:21:14;;;;;;;4.17;1.73;;;10.00;1.00;;;;;;8370217;28;20197;-67
2023/12/11 12:25:16;;;;;;;6.13;2.67;;;9.90;1.00;;;;;;8361547;28;20184;-65
2023/12/11 12:29:17;;;;;;;7.53;2.30;;;9.80;1.00;;;;;;8361059;28;20228;-66
2023/12/11 12:33:27;;;;;;;3.27;1.57;;;9.60;1.00;;;;;;8361610;28;20189;-65
2023/12/11 12:37:32;;;;;;;4.90;1.63;;;9.50;3.70;;;;;;8372829;28;20195;-64
2023/12/11 12:41:33;;;;;;;3.03;1.53;;;9.20;50.70;;;;;;8373811;28;20186;-64
2023/12/11 12:45:34;;;;;;;2.93;1.70;;;9.00;99.90;;;;;;8364635;28;20282;-66
2023/12/11 12:49:38;;;;;;;4.73;1.83;;;8.90;99.90;;;;;;8366290;28;20214;-65
2023/12/11 12:53:51;;;;;;;4.50;2.03;;;8.80;99.90;;;;;;8368760;28;20189;-65
2023/12/11 12:57:52;;;;;;;4.37;1.90;;;8.70;99.90;;;;;;8373808;28;20217;-66
2023/12/11 13:01:54;;;;;;;4.97;2.13;;;8.60;99.90;;;;;;8361134;28;20243;-64
2023/12/11 13:05:57;;;;;;;11.30;4.37;;;8.50;99.90;;;;;;8358808;28;20382;-65
2023/12/11 13:10:08;;;;;;;6.33;4.00;;;8.30;99.90;;;;;;8354739;28;20205;-65
2023/12/11 13:14:18;;;;;;;5.47;2.70;;;8.10;67.70;;;;;;8360303;28;20188;-66
2023/12/11 13:18:20;;;;;;;6.37;2.73;;;7.90;99.90;;;;;;8356634;28;20189;-65
2023/12/11 13:22:21;;;;;;;7.10;3.87;;;7.70;1.00;;;;;;8358157;28;20178;-65
2023/12/11 13:26:22;;;;;;;15.97;7.77;;;7.60;1.00;;;;;;8366963;28;20259;-66
2023/12/11 13:30:22;;;;;;;5.37;2.27;;;7.60;99.90;;;;;;8363143;28;20197;-65
2023/12/11 13:34:26;;;;;;;5.23;2.33;;;7.70;2.20;;;;;;8373546;28;20182;-66
2023/12/11 13:38:27;;;;;;;9.57;4.30;;;7.80;1.00;;;;;;8368702;28;20264;-65
2023/12/11 13:42:31;;;;;;;6.53;3.07;;;7.90;1.00;;;;;;8366540;28;20193;-66
2023/12/11 13:46:32;;;;;;;6.20;3.00;;;8.00;99.90;;;;;;8372301;28;20280;-65
2023/12/11 13:50:37;;;;;;;8.27;3.53;;;7.90;42.90;;;;;;8363579;28;20433;-64
2023/12/11 13:54:39;;;;;;;5.80;3.50;;;7.90;56.60;;;;;;8365245;28;20197;-64
2023/12/11 13:58:42;;;;;;;4.23;2.37;;;7.80;99.90;;;;;;8364466;28;20194;-65
2023/12/11 14:02:44;;;;;;;5.13;2.47;;;7.80;99.90;;;;;;8367934;28;20534;-65
2023/12/11 14:06:45;;;;;;;8.63;4.43;;;7.80;43.10;;;;;;8367866;28;20182;-65
2023/12/11 14:10:46;;;;;;;6.60;2.97;;;7.90;1.00;;;;;;8357681;28;20210;-68
2023/12/11 14:14:47;;;;;;;5.23;2.37;;;7.90;1.00;;;;;;8360221;28;20190;-68
2023/12/11 14:18:51;;;;;;;5.70;2.57;;;7.90;1.00;;;;;;8374681;28;20189;-68
2023/12/11 14:22:57;;;;;;;4.60;2.50;;;7.90;99.90;;;;;;8369183;28;20185;-69
2023/12/11 14:26:59;;;;;;;7.57;2.80;;;7.90;99.90;;;;;;8373796;28;20185;-68
2023/12/11 14:31:02;;;;;;;5.97;3.03;;;7.90;99.90;;;;;;8371796;28;20216;-69
2023/12/11 14:35:04;;;;;;;4.77;2.80;;;7.90;11.30;;;;;;8362377;28;20213;-71
2023/12/11 14:39:07;;;;;;;4.67;2.80;;;7.90;1.00;;;;;;8364568;28;20266;-70
2023/12/11 14:43:15;;;;;;;6.13;3.17;;;7.90;1.00;;;;;;8364758;28;20197;-67
2023/12/11 14:47:28;;;;;;;7.27;3.20;;;7.90;1.00;;;;;;8307357;28;20916;-67
2023/12/11 14:51:57;;;;;;;34.97;11.17;;;7.90;1.00;;;;;;8238274;28;20305;-69
2023/12/11 14:56:21;;;;;;;5.80;2.90;;;8.00;1.00;;;;;;8204139;28;20285;-67
2023/12/11 15:00:25;;;;;;;4.60;3.17;;;8.00;1.00;;;;;;8235434;28;20221;-68
2023/12/11 15:04:26;;;;;;;5.67;3.13;;;8.00;99.90;;;;;;8225235;28;20194;-68
2023/12/11 15:08:47;;;;;;;4.97;2.70;;;8.00;99.90;;;;;;8227338;28;20268;-70
2023/12/11 15:12:55;;;;;;;7.00;3.07;;;8.00;99.90;;;;;;8239997;28;20200;-67
2023/12/11 15:17:05;;;;;;;4.83;2.50;;;8.10;99.90;;;;;;8247190;28;21462;-67
2023/12/11 15:21:31;;;;;;;5.97;2.20;;;8.20;99.90;;;;;;8221731;28;20216;-67
2023/12/11 15:25:39;;;;;;;4.83;2.27;;;8.30;99.90;;;;;;8301038;28;20284;-66
2023/12/11 15:29:39;;;;;;;7.63;2.63;;;8.30;99.90;;;;;;8333563;28;20220;-66
2023/12/11 15:33:50;;;;;;;7.70;2.50;;;8.30;99.90;;;;;;8331237;28;20196;-65
2023/12/11 15:37:54;;;;;;;6.00;2.80;;;8.20;99.90;;;;;;8320843;28;20201;-68
2023/12/11 15:41:55;;;;;;;5.40;2.70;;;8.20;99.90;;;;;;8354603;28;20186;-68
2023/12/11 15:45:55;;;;;;;8.97;2.67;;;8.20;1.00;;;;;;8347577;28;20201;-67
2023/12/11 15:49:59;;;;;;;3.97;3.00;;;8.10;1.00;;;;;;8333340;28;20747;-67
2023/12/11 15:54:03;;;;;;;5.50;3.07;;;8.10;1.00;;;;;;8204560;28;20192;-67
2023/12/11 16:22:52;;;;;;;7.43;3.83;;;7.80;39.40;;;;;;8323773;28;20184;-67
2023/12/11 16:26:53;;;;;;;4.97;3.07;;;7.80;99.90;;;;;;8212391;28;20791;-68
2023/12/11 16:30:54;;;;;;;4.80;3.10;;;7.80;99.90;;;;;;8204394;28;20217;-68
2023/12/11 16:34:58;;;;;;;7.03;3.20;;;7.70;1.00;;;;;;8160061;28;20527;-67
2023/12/11 16:38:59;;;;;;;7.40;3.73;;;7.70;84.60;;;;;;8257177;28;20224;-66
2023/12/11 16:43:00;;;;;;;8.57;3.47;;;7.70;99.90;;;;;;8217561;28;20185;-68
2023/12/11 16:47:00;;;;;;;5.00;3.00;;;7.70;99.90;;;;;;8209538;28;20244;-71
2023/12/11 16:51:02;;;;;;;5.30;3.40;;;7.70;1.00;;;;;;8197719;28;21129;-68
2023/12/11 16:55:04;;;;;;;5.70;3.60;;;7.70;1.00;;;;;;8185678;28;20833;-68
2023/12/11 16:59:05;;;;;;;7.57;3.47;;;7.70;1.00;;;;;;8185625;28;20208;-68
2023/12/11 17:03:06;;;;;;;7.33;3.27;;;7.70;99.90;;;;;;8237243;28;20576;-69
2023/12/11 17:07:07;;;;;;;5.23;3.23;;;7.70;99.90;;;;;;8343958;28;20193;-68
2023/12/11 17:11:08;;;;;;;6.57;3.70;;;7.80;99.90;;;;;;8344572;28;20344;-67
2023/12/11 17:15:09;;;;;;;4.80;3.47;;;7.80;99.90;;;;;;8350785;28;20185;-67
2023/12/11 17:19:10;;;;;;;7.43;3.33;;;7.80;99.90;;;;;;8345505;28;20192;-70
2023/12/11 17:23:10;;;;;;;6.33;3.80;;;7.80;99.90;;;;;;8348072;28;20264;-69
2023/12/11 17:27:11;;;;;;;6.90;3.70;;;7.90;1.00;;;;;;8357799;28;20257;-69
2023/12/11 17:31:14;;;;;;;6.83;3.50;;;7.90;99.90;;;;;;8356290;28;20213;-69
2023/12/11 17:35:15;;;;;;;5.60;3.57;;;7.90;99.90;;;;;;8346590;28;20292;-69
2023/12/11 17:39:16;;;;;;;7.60;4.07;;;8.00;1.00;;;;;;8350862;28;20196;-69
2023/12/11 17:43:17;;;;;;;6.93;3.80;;;8.00;99.90;;;;;;8356117;28;20219;-68
2023/12/11 17:47:17;;;;;;;5.40;2.90;;;8.00;99.90;;;;;;8341862;28;20275;-68
2023/12/11 17:51:18;;;;;;;7.63;3.17;;;8.00;99.90;;;;;;8343057;28;20212;-65
2023/12/11 17:55:19;;;;;;;7.17;2.80;;;8.00;99.90;;;;;;8349025;28;20262;-65
2023/12/11 17:59:20;;;;;;;4.37;2.83;;;8.00;99.90;;;;;;8341092;28;20185;-67
2023/12/11 18:03:21;;;;;;;6.67;2.67;;;7.90;1.00;;;;;;8347528;28;20317;-65
2023/12/11 18:07:22;;;;;;;3.10;2.13;;;7.90;1.00;;;;;;8359024;28;20181;-66
2023/12/11 18:11:23;;;;;;;4.30;2.40;;;7.90;1.00;;;;;;8341221;28;20328;-67
2023/12/11 18:15:24;;;;;;;5.67;2.67;;;7.90;99.90;;;;;;8349916;28;20189;-66
2023/12/11 18:19:25;;;;;;;3.83;2.60;;;7.80;99.90;;;;;;8348250;28;20768;-64
2023/12/11 18:23:26;;;;;;;7.93;2.00;;;7.80;99.90;;;;;;8356353;28;20248;-67
2023/12/11 18:27:27;;;;;;;3.80;1.87;;;7.90;99.90;;;;;;8351286;28;20249;-68
2023/12/11 18:31:27;;;;;;;7.00;1.83;;;7.80;99.90;;;;;;8353180;28;20235;-69
2023/12/11 18:35:28;;;;;;;5.60;1.90;;;7.80;99.90;;;;;;8352155;28;20173;-69
2023/12/11 18:39:29;;;;;;;3.60;1.63;;;7.80;99.90;;;;;;8359950;28;20185;-63
2023/12/11 18:43:30;;;;;;;3.97;1.87;;;7.80;1.00;;;;;;8366314;28;20178;-63
2023/12/11 18:47:32;;;;;;;2.83;1.57;;;7.80;1.00;;;;;;8360211;28;20212;-64
2023/12/11 18:51:32;;;;;;;5.10;1.80;;;7.80;99.90;;;;;;8363409;28;20331;-66
2023/12/11 18:55:33;;;;;;;4.67;1.47;;;7.80;99.90;;;;;;8361328;28;20185;-64
2023/12/11 18:59:34;;;;;;;4.83;1.47;;;7.80;99.90;;;;;;8357911;28;20182;-64
2023/12/11 19:03:35;;;;;;;2.70;1.30;;;7.80;1.00;;;;;;8349401;28;20206;-66
2023/12/11 19:07:37;;;;;;;3.90;1.40;;;7.80;99.90;;;;;;8350347;28;20177;-66
2023/12/11 19:11:38;;;;;;;4.03;1.33;;;7.80;83.00;;;;;;8348736;28;20213;-64
2023/12/11 19:15:40;;;;;;;4.63;1.60;;;7.70;99.90;;;;;;8345277;28;20197;-65
2023/12/11 19:19:41;;;;;;;2.77;1.03;;;7.80;99.90;;;;;;8346454;28;20190;-69
2023/12/11 19:23:41;;;;;;;3.13;1.00;;;7.80;1.00;;;;;;8340931;28;20228;-66
2023/12/11 19:27:43;;;;;;;2.23;0.80;;;7.70;6.10;;;;;;8352113;28;20213;-67
2023/12/11 19:31:44;;;;;;;0.93;0.67;;;7.70;99.90;;;;;;8346044;28;20245;-66
2023/12/11 19:35:45;;;;;;;1.50;0.70;;;7.70;44.00;;;;;;8345548;28;20189;-64
2023/12/11 19:39:46;;;;;;;2.53;0.60;;;7.70;97.90;;;;;;8349096;28;20188;-66
2023/12/11 19:43:47;;;;;;;1.80;0.60;;;7.60;1.00;;;;;;8347242;28;20182;-68
2023/12/11 19:48:06;;;;;;;1.00;0.50;;;7.60;1.00;;;;;;8351048;28;20400;-65
2023/12/11 19:52:07;;;;;;;1.17;0.90;;;7.60;99.90;;;;;;8322874;28;20209;-68
2023/12/11 19:56:08;;;;;;;1.10;0.43;;;7.60;99.90;;;;;;8345522;28;20186;-65
2023/12/11 20:00:10;;;;;;;0.80;0.50;;;7.60;99.90;;;;;;8354123;28;20209;-67
2023/12/11 20:04:10;;;;;;;0.80;0.53;;;7.50;1.00;;;;;;8349661;28;20193;-65
2023/12/11 20:08:11;;;;;;;1.73;0.50;;;7.40;99.90;;;;;;8357628;28;20186;-68
2023/12/11 20:12:12;;;;;;;1.80;1.03;;;7.40;1.00;;;;;;8356594;28;20205;-69
2023/12/11 20:16:13;;;;;;;0.97;0.47;;;7.40;99.90;;;;;;8347699;28;20307;-67
2023/12/11 20:20:14;;;;;;;3.03;0.63;;;7.30;99.90;;;;;;8357804;28;20241;-68
2023/12/11 20:24:16;;;;;;;3.23;1.17;;;7.30;99.90;;;;;;8359600;28;20185;-66
2023/12/11 20:28:16;;;;;;;1.20;0.80;;;7.20;99.90;;;;;;8357911;28;20185;-66
2023/12/11 20:32:17;;;;;;;2.00;0.63;;;7.20;99.90;;;;;;8368402;28;20213;-66
2023/12/11 20:36:20;;;;;;;0.63;0.63;;;7.20;99.90;;;;;;8357238;28;20622;-67
2023/12/11 20:40:21;;;;;;;4.13;0.90;;;7.30;99.90;;;;;;8352892;28;20258;-68
2023/12/11 20:44:22;;;;;;;2.70;1.03;;;7.30;99.90;;;;;;8358332;28;20531;-68
2023/12/11 20:48:23;;;;;;;2.13;1.10;;;7.30;99.90;;;;;;8353968;28;20300;-67
2023/12/11 20:52:24;;;;;;;3.17;1.20;;;7.30;99.90;;;;;;8354502;28;20221;-67
2023/12/11 20:56:26;;;;;;;3.83;1.30;;;7.30;99.90;;;;;;8358378;28;20173;-68
2023/12/11 21:00:27;;;;;;;2.50;1.57;;;7.20;99.90;;;;;;8362186;28;20214;-68
2023/12/11 21:04:28;;;;;;;2.40;1.27;;;7.20;99.90;;;;;;8355721;28;20228;-66
2023/12/11 21:08:30;;;;;;;5.07;1.10;;;7.20;99.90;;;;;;8356141;28;20192;-68
2023/12/11 21:12:31;;;;;;;3.67;1.03;;;7.20;99.90;;;;;;8356345;28;20456;-66
2023/12/11 21:16:34;;;;;;;2.70;1.20;;;7.10;99.90;;;;;;8357263;28;20281;-66
2023/12/11 21:20:35;;;;;;;5.87;1.43;;;7.10;99.90;;;;;;8349955;28;20267;-68
2023/12/11 21:24:36;;;;;;;4.90;1.33;;;7.10;99.90;;;;;;8349841;28;20209;-67
2023/12/11 21:28:37;;;;;;;3.40;1.03;;;7.20;99.90;;;;;;8346627;28;20188;-67
2023/12/11 21:32:42;;;;;;;5.00;1.10;;;7.20;99.90;;;;;;8352317;28;20263;-67
2023/12/11 21:36:42;;;;;;;2.63;1.20;;;7.20;99.90;;;;;;8344354;28;20186;-66
2023/12/11 21:40:43;;;;;;;1.87;0.90;;;7.10;99.90;;;;;;8351443;28;20201;-67
2023/12/11 21:44:47;;;;;;;3.07;1.33;;;7.10;99.90;;;;;;8343796;28;20226;-64
2023/12/11 21:48:48;;;;;;;2.40;1.40;;;7.10;96.00;;;;;;8343212;28;20193;-66
2023/12/11 21:52:49;;;;;;;2.23;1.10;;;7.10;99.90;;;;;;8349480;28;20205;-66
2023/12/11 21:56:50;;;;;;;1.60;1.07;;;7.10;1.00;;;;;;8356027;28;20709;-66
2023/12/11 22:00:51;;;;;;;2.73;1.33;;;7.10;99.90;;;;;;8352989;28;20206;-65